Time;durP1;ratioP1;P1;durP2;ratioP2;P2;SDS_P1;SDS_P2;PMS_P1;PMS_P2;Temp;Humidity;BMP_temperature;BMP_pressure;BME280_temperature;BME280_humidity;BME280_pressure;Samples;Min_cycle;Max_cycle;Signal;HPM_P1;HPM_P2
2021/05/08 00:01:35;;;;;;;9.00;3.75;;;7.00;85.40;;;;;;5074984;28;20040;-71
2021/05/08 00:04:02;;;;;;;5.07;2.20;;;7.00;86.20;;;;;;5072481;28;20056;-71
2021/05/08 00:06:28;;;;;;;8.95;2.47;;;7.00;85.60;;;;;;5073366;28;20032;-72
2021/05/08 00:08:53;;;;;;;12.80;3.28;;;7.00;85.70;;;;;;5074299;28;20029;-71
2021/05/08 00:11:19;;;;;;;10.27;2.33;;;7.00;85.90;;;;;;5076047;28;20485;-71
2021/05/08 00:13:45;;;;;;;9.45;3.38;;;7.00;86.10;;;;;;5074250;28;20028;-71
2021/05/08 00:16:11;;;;;;;8.70;2.55;;;7.00;86.00;;;;;;5075378;28;20032;-71
2021/05/08 00:18:36;;;;;;;11.07;2.85;;;6.90;85.80;;;;;;5073727;28;20024;-72
2021/05/08 00:21:03;;;;;;;8.80;2.20;;;7.00;86.20;;;;;;5073408;28;20043;-70
2021/05/08 00:23:28;;;;;;;8.18;2.50;;;6.90;86.00;;;;;;5073217;28;20029;-72
2021/05/08 00:25:55;;;;;;;5.65;2.30;;;6.90;85.90;;;;;;5074241;28;20028;-70
2021/05/08 00:28:20;;;;;;;8.68;2.70;;;6.90;85.80;;;;;;5074868;28;20025;-71
2021/05/08 00:30:46;;;;;;;11.82;2.67;;;6.90;85.80;;;;;;5075130;28;20042;-71
2021/05/08 00:33:12;;;;;;;9.32;2.75;;;6.90;85.90;;;;;;5069735;28;20025;-71
2021/05/08 00:35:37;;;;;;;12.95;3.33;;;6.80;85.80;;;;;;5073525;28;20036;-71
2021/05/08 00:38:03;;;;;;;7.93;3.00;;;6.90;86.00;;;;;;5074678;28;20029;-72
2021/05/08 00:40:29;;;;;;;5.07;2.42;;;6.80;85.90;;;;;;5075112;28;20128;-71
2021/05/08 00:42:55;;;;;;;5.65;2.30;;;6.90;86.00;;;;;;5072263;28;20032;-71
2021/05/08 00:45:20;;;;;;;7.60;3.58;;;6.80;86.10;;;;;;5074232;28;20511;-71
2021/05/08 00:47:48;;;;;;;7.68;2.60;;;6.80;86.50;;;;;;5075825;28;20111;-72
2021/05/08 00:50:19;;;;;;;6.38;2.65;;;6.80;86.20;;;;;;5072658;28;20111;-71
2021/05/08 00:52:44;;;;;;;6.85;2.65;;;6.80;86.20;;;;;;5073320;28;20032;-71
2021/05/08 00:55:11;;;;;;;8.93;3.05;;;6.80;86.10;;;;;;5074836;28;20111;-71
2021/05/08 00:57:37;;;;;;;8.82;2.95;;;6.70;86.30;;;;;;5071990;28;20090;-71
2021/05/08 01:00:08;;;;;;;9.77;3.17;;;6.70;86.30;;;;;;5073185;28;20043;-71
2021/05/08 01:02:34;;;;;;;8.88;2.58;;;6.70;86.30;;;;;;5073070;28;20467;-71
2021/05/08 01:05:02;;;;;;;11.10;5.00;;;6.70;86.30;;;;;;5073675;28;20024;-71
2021/05/08 01:07:28;;;;;;;7.55;3.45;;;6.60;86.20;;;;;;5073440;28;20028;-71
2021/05/08 01:09:54;;;;;;;10.73;3.47;;;6.60;86.20;;;;;;5073237;28;20039;-71
2021/05/08 01:12:20;;;;;;;6.30;2.45;;;6.60;86.30;;;;;;5072339;28;20032;-72
2021/05/08 01:14:46;;;;;;;8.05;3.10;;;6.60;86.40;;;;;;5074027;28;20028;-71
2021/05/08 01:17:12;;;;;;;4.45;2.50;;;6.50;86.40;;;;;;5074818;28;20108;-70
2021/05/08 01:19:38;;;;;;;10.32;2.78;;;6.50;86.50;;;;;;5074366;28;20513;-71
2021/05/08 01:22:04;;;;;;;8.38;3.00;;;6.50;86.70;;;;;;5070472;28;20024;-72
2021/05/08 01:24:30;;;;;;;9.20;2.35;;;6.50;87.00;;;;;;5074207;28;20037;-71
2021/05/08 01:26:55;;;;;;;8.02;3.78;;;6.50;87.40;;;;;;5073870;28;20039;-71
2021/05/08 01:29:21;;;;;;;6.90;2.80;;;6.50;87.00;;;;;;5076571;28;20029;-70
2021/05/08 01:31:47;;;;;;;9.50;2.88;;;6.40;87.00;;;;;;5076193;28;20031;-70
2021/05/08 01:34:13;;;;;;;8.35;2.97;;;6.40;87.20;;;;;;5072735;28;20355;-69
2021/05/08 01:36:39;;;;;;;7.53;2.85;;;6.40;87.50;;;;;;5074010;28;20486;-71
2021/05/08 01:39:06;;;;;;;10.73;2.67;;;6.40;87.20;;;;;;5074085;28;20043;-70
2021/05/08 01:41:32;;;;;;;8.65;3.15;;;6.40;87.40;;;;;;5069481;28;20021;-70
2021/05/08 01:43:57;;;;;;;7.95;3.67;;;6.40;87.50;;;;;;5072455;28;20032;-71
2021/05/08 01:46:23;;;;;;;6.00;3.22;;;6.40;88.00;;;;;;5073194;28;20030;-70
2021/05/08 01:48:49;;;;;;;6.63;3.05;;;6.40;87.50;;;;;;5071628;28;20036;-71
2021/05/08 01:51:15;;;;;;;7.20;3.10;;;6.40;87.70;;;;;;5075874;28;20043;-71
2021/05/08 01:53:41;;;;;;;10.55;3.38;;;6.40;87.70;;;;;;5074188;28;20031;-71
2021/05/08 01:56:07;;;;;;;9.48;3.40;;;6.30;88.00;;;;;;5073137;28;20025;-71
2021/05/08 01:58:34;;;;;;;11.93;3.40;;;6.40;88.00;;;;;;5073735;28;20032;-71
2021/05/08 02:01:02;;;;;;;6.75;3.22;;;6.30;88.00;;;;;;5072042;28;20043;-70
2021/05/08 02:03:28;;;;;;;8.45;3.10;;;6.30;88.10;;;;;;5072860;28;20064;-71
2021/05/08 02:05:54;;;;;;;10.45;2.88;;;6.30;88.10;;;;;;5073536;28;20580;-72
2021/05/08 02:08:20;;;;;;;7.93;3.15;;;6.30;88.30;;;;;;5071847;28;20040;-71
2021/05/08 02:10:46;;;;;;;7.90;2.60;;;6.30;88.80;;;;;;5072298;28;20105;-71
2021/05/08 02:13:13;;;;;;;11.77;4.13;;;6.30;88.30;;;;;;5077015;28;20251;-72
2021/05/08 02:15:39;;;;;;;8.90;3.15;;;6.30;88.40;;;;;;5073225;28;20028;-72
2021/05/08 02:18:06;;;;;;;8.20;3.30;;;6.30;88.20;;;;;;5073458;28;20072;-72
2021/05/08 02:20:34;;;;;;;8.18;2.90;;;6.20;88.30;;;;;;5071636;28;20054;-72
2021/05/08 02:23:02;;;;;;;12.02;3.67;;;6.20;88.20;;;;;;5069462;28;20037;-71
2021/05/08 02:25:28;;;;;;;7.25;2.80;;;6.20;88.40;;;;;;5073403;28;20036;-72
2021/05/08 02:27:55;;;;;;;9.60;2.72;;;6.20;88.30;;;;;;5074134;28;20100;-71
2021/05/08 02:30:23;;;;;;;7.57;3.22;;;6.20;88.40;;;;;;5072779;28;20039;-72
2021/05/08 02:32:49;;;;;;;7.40;2.80;;;6.20;88.90;;;;;;5073127;28;20028;-72
2021/05/08 02:35:16;;;;;;;7.85;3.05;;;6.20;88.60;;;;;;5073182;28;20097;-72
2021/05/08 02:37:42;;;;;;;11.65;3.47;;;6.10;88.60;;;;;;5073555;28;20033;-72
2021/05/08 02:40:15;;;;;;;10.18;3.70;;;6.10;88.70;;;;;;5072859;28;20028;-71
2021/05/08 02:42:41;;;;;;;8.02;2.97;;;6.10;88.60;;;;;;5073003;28;20106;-71
2021/05/08 02:45:07;;;;;;;12.15;3.30;;;6.10;88.60;;;;;;5070565;28;20025;-72
2021/05/08 02:47:34;;;;;;;11.77;3.22;;;6.10;88.60;;;;;;5072810;28;20419;-72
2021/05/08 02:50:02;;;;;;;11.10;3.67;;;6.10;88.80;;;;;;5072875;28;20282;-72
2021/05/08 02:52:28;;;;;;;9.05;3.55;;;6.10;88.80;;;;;;5071720;28;20037;-71
2021/05/08 02:54:53;;;;;;;10.38;4.60;;;6.00;88.70;;;;;;5074425;28;20029;-72
2021/05/08 02:57:19;;;;;;;13.93;3.95;;;6.00;89.20;;;;;;5073823;28;20382;-71
2021/05/08 02:59:45;;;;;;;15.98;3.65;;;6.00;89.10;;;;;;5072257;28;20062;-71
2021/05/08 03:02:11;;;;;;;7.53;3.10;;;6.00;89.40;;;;;;5073201;28;20037;-72
2021/05/08 03:04:37;;;;;;;7.50;3.03;;;6.00;89.20;;;;;;5073174;28;20505;-71
2021/05/08 03:07:03;;;;;;;9.88;4.18;;;6.00;89.00;;;;;;5072431;28;20031;-72
2021/05/08 03:09:30;;;;;;;13.57;3.05;;;6.00;89.10;;;;;;5072819;28;20032;-71
2021/05/08 03:11:57;;;;;;;12.73;3.55;;;6.00;89.20;;;;;;5071779;28;20029;-72
2021/05/08 03:14:23;;;;;;;9.30;3.78;;;5.90;88.90;;;;;;5071752;28;20033;-71
2021/05/08 03:16:49;;;;;;;9.55;3.38;;;5.90;89.20;;;;;;5070647;28;20553;-71
2021/05/08 03:19:15;;;;;;;11.07;3.50;;;5.90;89.00;;;;;;5073671;28;20043;-71
2021/05/08 03:21:41;;;;;;;8.27;3.38;;;5.90;88.90;;;;;;5076895;28;20032;-72
2021/05/08 03:24:07;;;;;;;6.00;3.00;;;5.90;88.90;;;;;;5085608;28;20031;-71
2021/05/08 03:26:33;;;;;;;12.80;4.07;;;5.90;89.00;;;;;;5077231;28;20122;-72
2021/05/08 03:28:59;;;;;;;11.45;3.78;;;5.90;89.20;;;;;;5076076;28;20509;-71
2021/05/08 03:31:25;;;;;;;9.52;3.28;;;5.80;89.20;;;;;;5073924;28;20052;-71
2021/05/08 03:33:51;;;;;;;14.48;3.55;;;5.80;89.20;;;;;;5075284;28;20024;-69
2021/05/08 03:36:17;;;;;;;10.45;4.10;;;5.90;89.30;;;;;;5075562;28;20036;-70
2021/05/08 03:38:42;;;;;;;10.60;4.35;;;5.90;89.40;;;;;;5078083;28;20040;-71
2021/05/08 03:41:08;;;;;;;9.52;3.17;;;5.90;89.30;;;;;;5077106;28;20056;-71
2021/05/08 03:43:34;;;;;;;10.52;3.30;;;5.90;89.30;;;;;;5075625;28;20020;-70
2021/05/08 03:45:59;;;;;;;6.15;2.92;;;5.80;89.10;;;;;;5075708;28;20040;-71
2021/05/08 03:48:25;;;;;;;6.35;3.15;;;5.90;89.00;;;;;;5075753;28;20037;-71
2021/05/08 03:50:52;;;;;;;8.73;3.85;;;5.80;89.00;;;;;;5075681;28;20041;-71
2021/05/08 03:53:22;;;;;;;9.63;3.72;;;5.80;89.00;;;;;;5075066;28;20036;-71
2021/05/08 03:55:50;;;;;;;13.77;5.22;;;5.80;89.30;;;;;;5077392;28;20055;-71
2021/05/08 03:58:16;;;;;;;13.65;4.05;;;5.80;89.40;;;;;;5075302;28;20516;-71
2021/05/08 04:00:42;;;;;;;11.85;3.72;;;5.80;89.30;;;;;;5075118;28;20037;-71
2021/05/08 04:03:07;;;;;;;7.55;4.03;;;5.80;89.60;;;;;;5074412;28;20120;-70
2021/05/08 04:05:33;;;;;;;11.13;3.90;;;5.80;89.50;;;;;;5074594;28;20486;-71
2021/05/08 04:07:59;;;;;;;14.85;5.25;;;5.80;89.60;;;;;;5072935;28;20124;-70
2021/05/08 04:10:24;;;;;;;8.65;3.78;;;5.80;89.90;;;;;;5074794;28;20537;-71
2021/05/08 04:12:50;;;;;;;14.43;4.85;;;5.80;89.90;;;;;;5073386;28;20028;-71
2021/05/08 04:15:16;;;;;;;11.15;4.40;;;5.70;89.70;;;;;;5073988;28;20321;-70
2021/05/08 04:17:41;;;;;;;6.10;3.22;;;5.70;90.00;;;;;;5076411;28;20116;-70
2021/05/08 04:20:07;;;;;;;16.15;4.03;;;5.70;89.80;;;;;;5076420;28;20050;-71
2021/05/08 04:22:33;;;;;;;12.75;4.95;;;5.70;90.00;;;;;;5075202;28;20044;-71
2021/05/08 04:24:59;;;;;;;12.40;4.43;;;5.70;90.10;;;;;;5073716;28;20036;-71
2021/05/08 04:27:24;;;;;;;12.77;4.70;;;5.70;90.10;;;;;;5073964;28;20025;-70
2021/05/08 04:29:50;;;;;;;14.32;4.78;;;5.70;90.10;;;;;;5077194;28;20410;-70
2021/05/08 04:32:16;;;;;;;10.45;4.65;;;5.70;90.20;;;;;;5074481;28;20048;-71
2021/05/08 04:34:42;;;;;;;11.63;4.47;;;5.70;90.30;;;;;;5073893;28;20588;-71
2021/05/08 04:37:07;;;;;;;12.45;4.80;;;5.70;90.20;;;;;;5075354;28;20110;-71
2021/05/08 04:39:33;;;;;;;12.88;4.50;;;5.70;90.40;;;;;;5075020;28;20024;-70
2021/05/08 04:41:59;;;;;;;18.00;5.47;;;5.80;90.30;;;;;;5070987;28;20048;-71
2021/05/08 04:44:26;;;;;;;11.23;4.78;;;5.80;90.30;;;;;;5074118;28;20032;-71
2021/05/08 04:46:51;;;;;;;15.82;5.13;;;5.90;90.20;;;;;;5073051;28;20055;-72
2021/05/08 04:49:18;;;;;;;12.48;4.72;;;5.90;90.10;;;;;;5075608;28;20039;-71
2021/05/08 04:51:44;;;;;;;11.50;4.60;;;5.90;90.20;;;;;;5073984;28;20059;-71
2021/05/08 04:54:10;;;;;;;12.70;4.15;;;5.90;90.20;;;;;;5075019;28;20037;-71
2021/05/08 04:56:36;;;;;;;11.43;5.25;;;5.90;90.20;;;;;;5075811;28;20035;-70
2021/05/08 04:59:02;;;;;;;8.13;4.25;;;5.90;90.20;;;;;;5075261;28;20036;-71
2021/05/08 05:01:28;;;;;;;13.75;4.75;;;5.90;90.10;;;;;;5072962;28;20032;-70
2021/05/08 05:03:54;;;;;;;9.23;4.35;;;6.00;90.10;;;;;;5074441;28;20021;-71
2021/05/08 05:06:20;;;;;;;13.18;4.65;;;6.00;90.00;;;;;;5074496;28;20031;-71
2021/05/08 05:08:46;;;;;;;12.48;5.40;;;6.00;90.00;;;;;;5074715;28;20032;-70
2021/05/08 05:11:11;;;;;;;10.48;5.22;;;6.00;90.00;;;;;;5076809;28;20448;-71
2021/05/08 05:13:39;;;;;;;13.70;4.88;;;6.10;90.00;;;;;;5074653;28;20106;-70
2021/05/08 05:16:05;;;;;;;11.38;4.95;;;6.10;90.00;;;;;;5073532;28;20042;-71
2021/05/08 05:18:31;;;;;;;13.45;5.40;;;6.10;90.00;;;;;;5074880;28;20020;-71
2021/05/08 05:20:57;;;;;;;10.38;4.97;;;6.10;90.00;;;;;;5075311;28;20028;-71
2021/05/08 05:23:23;;;;;;;11.38;5.00;;;6.10;90.00;;;;;;5073818;28;20086;-71
2021/05/08 05:25:49;;;;;;;16.77;5.93;;;6.20;90.00;;;;;;5073604;28;20032;-71
2021/05/08 05:28:28;;;;;;;9.13;5.07;;;6.20;90.00;;;;;;5075187;28;20089;-70
2021/05/08 05:30:55;;;;;;;10.88;5.30;;;6.20;90.00;;;;;;5071390;28;20040;-70
2021/05/08 05:33:22;;;;;;;13.82;5.32;;;6.30;89.90;;;;;;5073303;28;20029;-71
2021/05/08 05:35:51;;;;;;;10.27;5.60;;;6.30;89.80;;;;;;5074216;28;20423;-72
2021/05/08 05:38:17;;;;;;;12.57;5.20;;;6.40;89.60;;;;;;5075017;28;20569;-70
2021/05/08 05:40:44;;;;;;;11.00;4.82;;;6.40;89.70;;;;;;5075775;28;20035;-70
2021/05/08 05:43:10;;;;;;;10.90;5.47;;;6.40;89.60;;;;;;5073608;28;20516;-70
2021/05/08 05:45:36;;;;;;;8.77;4.50;;;6.50;89.50;;;;;;5072036;28;20024;-70
2021/05/08 05:48:04;;;;;;;8.30;4.20;;;6.50;89.40;;;;;;5074532;28;20032;-70
2021/05/08 05:50:30;;;;;;;8.70;4.50;;;6.60;89.30;;;;;;5074024;28;20036;-72
2021/05/08 05:52:56;;;;;;;8.88;5.18;;;6.60;89.20;;;;;;5073729;28;20385;-70
2021/05/08 05:55:25;;;;;;;11.48;4.72;;;6.70;89.00;;;;;;5070329;28;20503;-70
2021/05/08 05:57:53;;;;;;;8.77;4.13;;;6.70;89.00;;;;;;5072002;28;20033;-70
2021/05/08 06:00:19;;;;;;;8.98;4.82;;;6.80;89.00;;;;;;5069499;28;20066;-70
2021/05/08 06:02:45;;;;;;;9.55;4.43;;;6.80;88.90;;;;;;5072467;28;20095;-70
2021/05/08 06:05:11;;;;;;;6.72;4.38;;;6.80;88.70;;;;;;5073088;28;20088;-71
2021/05/08 06:07:37;;;;;;;8.80;4.43;;;6.90;89.20;;;;;;5072117;28;20141;-72
2021/05/08 06:10:05;;;;;;;8.32;3.92;;;6.90;88.70;;;;;;5073831;28;20420;-70
2021/05/08 06:12:31;;;;;;;11.40;4.07;;;7.00;88.60;;;;;;5071079;28;20060;-71
2021/05/08 06:14:57;;;;;;;12.73;5.97;;;7.10;88.50;;;;;;5068863;28;20115;-72
2021/05/08 06:17:22;;;;;;;11.65;5.30;;;7.10;88.40;;;;;;5067760;28;20158;-71
2021/05/08 06:19:48;;;;;;;11.15;5.03;;;7.10;88.20;;;;;;5069664;28;20029;-71
2021/05/08 06:22:14;;;;;;;14.38;6.35;;;7.20;88.00;;;;;;5069897;28;20584;-70
2021/05/08 06:24:40;;;;;;;14.40;4.80;;;7.20;88.00;;;;;;5070072;28;20035;-70
2021/05/08 06:27:06;;;;;;;11.95;4.40;;;7.30;87.80;;;;;;5073683;28;20024;-71
2021/05/08 06:29:31;;;;;;;9.63;3.92;;;7.30;87.80;;;;;;5071172;28;20060;-71
2021/05/08 06:31:57;;;;;;;12.45;5.10;;;7.40;87.80;;;;;;5073590;28;20445;-71
2021/05/08 06:34:23;;;;;;;11.63;5.10;;;7.50;87.80;;;;;;5067049;28;20559;-69
2021/05/08 06:36:49;;;;;;;12.23;5.10;;;7.50;87.50;;;;;;5069185;28;20394;-71
2021/05/08 06:39:14;;;;;;;8.13;4.28;;;7.50;87.20;;;;;;5070658;28;20195;-70
2021/05/08 06:41:40;;;;;;;10.65;5.40;;;7.50;87.30;;;;;;5069797;28;20027;-71
2021/05/08 06:44:06;;;;;;;13.20;5.50;;;7.60;87.60;;;;;;5069752;28;20063;-70
2021/05/08 06:46:32;;;;;;;15.43;4.85;;;7.70;87.30;;;;;;5068386;28;20029;-70
2021/05/08 06:48:58;;;;;;;14.43;5.47;;;7.70;87.30;;;;;;5069331;28;20029;-71
2021/05/08 06:51:23;;;;;;;13.65;4.22;;;7.70;87.00;;;;;;5069637;28;20052;-70
2021/05/08 06:53:49;;;;;;;12.40;4.50;;;7.80;87.20;;;;;;5071824;28;20028;-70
2021/05/08 06:56:15;;;;;;;12.68;5.43;;;7.80;86.70;;;;;;5072174;28;20056;-70
2021/05/08 06:58:42;;;;;;;11.98;5.25;;;7.90;86.40;;;;;;5074041;28;20020;-71
2021/05/08 07:01:08;;;;;;;9.65;4.60;;;7.90;87.20;;;;;;5071512;28;20483;-71
2021/05/08 07:03:34;;;;;;;8.52;4.35;;;8.10;87.30;;;;;;5076132;28;20110;-71
2021/05/08 07:06:02;;;;;;;8.70;4.35;;;8.20;86.00;;;;;;5075170;28;20702;-68
2021/05/08 07:08:27;;;;;;;15.75;4.60;;;8.30;85.20;;;;;;5074794;28;20455;-71
2021/05/08 07:10:54;;;;;;;13.50;4.88;;;8.20;85.20;;;;;;5074421;28;20150;-71
2021/05/08 07:13:20;;;;;;;12.35;4.53;;;8.20;85.50;;;;;;5072190;28;20038;-70
2021/05/08 07:15:47;;;;;;;8.05;3.75;;;8.20;85.60;;;;;;5075469;28;20029;-71
2021/05/08 07:18:13;;;;;;;12.40;4.85;;;8.40;86.60;;;;;;5075429;28;20519;-71
2021/05/08 07:20:39;;;;;;;11.50;4.88;;;8.70;85.50;;;;;;5072847;28;20020;-71
2021/05/08 07:23:06;;;;;;;8.45;4.47;;;8.70;83.90;;;;;;5073451;28;20096;-70
2021/05/08 07:25:35;;;;;;;11.32;4.57;;;8.70;84.00;;;;;;5074074;28;20441;-72
2021/05/08 07:28:27;;;;;;;10.90;4.35;;;8.70;83.50;;;;;;5073424;28;20056;-71
2021/05/08 07:30:55;;;;;;;8.23;4.35;;;8.70;83.90;;;;;;5070387;28;20398;-71
2021/05/08 07:33:22;;;;;;;14.20;4.43;;;8.70;83.20;;;;;;5070369;28;20482;-70
2021/05/08 07:35:49;;;;;;;14.40;4.60;;;8.70;83.40;;;;;;5070375;28;20033;-71
2021/05/08 07:38:15;;;;;;;12.50;4.18;;;8.70;83.20;;;;;;5069549;28;20106;-71
2021/05/08 07:40:42;;;;;;;9.82;4.05;;;8.70;82.50;;;;;;5068789;28;20037;-71
2021/05/08 07:43:08;;;;;;;16.40;4.20;;;8.80;82.30;;;;;;5070957;28;20036;-70
2021/05/08 07:45:35;;;;;;;8.77;2.90;;;8.80;80.70;;;;;;5072737;28;20039;-68
2021/05/08 07:48:02;;;;;;;10.27;4.18;;;8.80;81.10;;;;;;5076482;28;20024;-71
2021/05/08 07:50:29;;;;;;;10.15;4.03;;;8.80;81.50;;;;;;5070704;28;20024;-70
2021/05/08 07:52:55;;;;;;;7.90;3.15;;;8.90;80.60;;;;;;5070719;28;20064;-69
2021/05/08 07:55:21;;;;;;;9.77;3.20;;;9.00;80.70;;;;;;5084392;28;20063;-70
2021/05/08 07:57:47;;;;;;;9.40;3.38;;;9.00;78.90;;;;;;5074044;28;20521;-69
2021/05/08 08:00:15;;;;;;;7.97;3.05;;;9.00;79.20;;;;;;5071284;28;20029;-70
2021/05/08 08:02:41;;;;;;;5.40;3.03;;;9.10;80.30;;;;;;5068975;28;20078;-69
2021/05/08 08:05:08;;;;;;;8.25;2.70;;;9.20;78.90;;;;;;5070932;28;20020;-68
2021/05/08 08:07:33;;;;;;;6.05;2.53;;;9.20;78.90;;;;;;5070542;28;20024;-68
2021/05/08 08:10:02;;;;;;;7.78;2.70;;;9.30;79.30;;;;;;5072094;28;20041;-68
2021/05/08 08:12:28;;;;;;;11.63;4.30;;;9.40;79.50;;;;;;5067807;28;20043;-68
2021/05/08 08:14:53;;;;;;;8.23;3.17;;;9.40;77.80;;;;;;5065642;28;20036;-70
2021/05/08 08:17:19;;;;;;;6.70;2.38;;;9.40;76.60;;;;;;5069303;28;20036;-68
2021/05/08 08:19:48;;;;;;;12.63;3.08;;;9.40;76.50;;;;;;5068224;28;20040;-69
2021/05/08 08:22:15;;;;;;;8.45;2.65;;;9.40;75.10;;;;;;5067985;28;20029;-69
2021/05/08 08:24:42;;;;;;;5.80;2.67;;;9.40;75.70;;;;;;5065552;28;20029;-69
2021/05/08 08:27:08;;;;;;;8.13;2.10;;;9.50;76.00;;;;;;5067929;28;20037;-71
2021/05/08 08:29:34;;;;;;;7.15;2.28;;;9.50;76.40;;;;;;5065314;28;20028;-69
2021/05/08 08:32:02;;;;;;;5.93;2.63;;;9.50;76.70;;;;;;5063417;28;20042;-70
2021/05/08 08:34:28;;;;;;;10.25;2.88;;;9.60;75.80;;;;;;5062840;28;20451;-69
2021/05/08 08:36:53;;;;;;;10.30;2.60;;;9.60;74.10;;;;;;5061372;28;20116;-69
2021/05/08 08:39:19;;;;;;;7.50;2.17;;;9.60;72.50;;;;;;5061941;28;20522;-69
2021/05/08 08:41:44;;;;;;;6.80;2.00;;;9.60;72.90;;;;;;5066740;28;20036;-71
2021/05/08 08:44:10;;;;;;;11.40;2.58;;;9.70;73.00;;;;;;5065751;28;20031;-70
2021/05/08 08:46:46;;;;;;;6.95;2.10;;;9.80;72.00;;;;;;5067914;28;20433;-69
2021/05/08 08:49:13;;;;;;;5.90;2.10;;;9.90;71.40;;;;;;5069361;28;20582;-69
2021/05/08 08:51:40;;;;;;;7.22;2.80;;;10.00;72.10;;;;;;5069686;28;20033;-69
2021/05/08 08:54:07;;;;;;;7.72;1.92;;;10.10;72.80;;;;;;5067037;28;20032;-69
2021/05/08 08:56:42;;;;;;;8.55;2.67;;;10.20;72.50;;;;;;5065188;28;20132;-69
2021/05/08 09:01:49;;;;;;;;;;;10.40;70.30;;;;;;5066590;28;20394;-69
2021/05/08 09:04:16;;;;;;;6.07;1.70;;;10.60;69.30;;;;;;5067764;28;19942;-69
2021/05/08 09:06:43;;;;;;;4.45;2.05;;;10.60;70.70;;;;;;5069525;28;20078;-70
2021/05/08 09:09:09;;;;;;;6.25;2.35;;;10.70;71.10;;;;;;5068419;28;20025;-69
2021/05/08 09:12:11;;;;;;;9.25;2.53;;;10.70;68.70;;;;;;5069699;28;20067;-70
2021/05/08 09:14:36;;;;;;;5.35;1.92;;;10.60;68.80;;;;;;5058933;28;20467;-70
2021/05/08 09:17:05;;;;;;;5.20;1.90;;;10.70;70.20;;;;;;5067785;28;20525;-70
2021/05/08 09:19:32;;;;;;;9.07;2.72;;;10.70;69.30;;;;;;5066470;28;20086;-69
2021/05/08 09:21:58;;;;;;;9.25;3.05;;;10.80;68.80;;;;;;5065878;28;20031;-69
2021/05/08 09:24:25;;;;;;;11.40;3.88;;;10.90;69.50;;;;;;5066770;28;20036;-70
2021/05/08 09:27:02;;;;;;;9.80;3.03;;;11.00;68.00;;;;;;5066740;28;20390;-71
2021/05/08 09:29:28;;;;;;;5.70;2.33;;;11.10;68.30;;;;;;5067923;28;20056;-69
2021/05/08 09:31:56;;;;;;;13.48;2.85;;;11.20;68.60;;;;;;5065687;28;20114;-70
2021/05/08 09:34:22;;;;;;;5.22;1.75;;;11.20;67.20;;;;;;5067816;28;20508;-69
2021/05/08 09:36:52;;;;;;;6.10;2.10;;;11.20;67.40;;;;;;5069522;28;20044;-69
2021/05/08 09:39:32;;;;;;;4.05;2.25;;;11.20;67.90;;;;;;5067201;28;20420;-69
2021/05/08 09:41:59;;;;;;;5.88;1.60;;;11.20;66.40;;;;;;5068500;28;20029;-68
2021/05/08 09:44:24;;;;;;;7.78;2.58;;;11.20;65.00;;;;;;5066598;28;20600;-69
2021/05/08 09:46:52;;;;;;;3.97;1.88;;;11.20;64.60;;;;;;5063727;28;20048;-69
2021/05/08 09:49:21;;;;;;;5.18;2.10;;;11.20;63.50;;;;;;5067030;28;20036;-70
2021/05/08 09:51:59;;;;;;;7.07;2.33;;;11.20;62.80;;;;;;5068557;28;20166;-68
2021/05/08 09:54:25;;;;;;;6.07;1.80;;;11.20;63.90;;;;;;5070178;28;20379;-69
2021/05/08 09:56:51;;;;;;;3.28;1.75;;;11.30;64.10;;;;;;5066370;28;20047;-69
2021/05/08 09:59:34;;;;;;;5.55;1.73;;;11.30;64.80;;;;;;5067746;28;20499;-69
2021/05/08 10:02:02;;;;;;;4.10;1.70;;;11.40;65.70;;;;;;5066005;28;20115;-69
2021/05/08 10:04:29;;;;;;;5.60;1.90;;;11.50;66.30;;;;;;5068886;28;20085;-69
2021/05/08 10:07:23;;;;;;;5.75;2.03;;;11.50;63.40;;;;;;5067248;28;20032;-70
2021/05/08 10:09:53;;;;;;;5.43;2.60;;;11.60;63.10;;;;;;5066848;28;20399;-69
2021/05/08 10:12:23;;;;;;;7.47;2.27;;;11.60;63.80;;;;;;5068040;28;20099;-67
2021/05/08 10:14:51;;;;;;;5.32;2.70;;;11.70;61.90;;;;;;5077296;28;20028;-68
2021/05/08 10:17:24;;;;;;;5.65;2.20;;;11.80;60.20;;;;;;5065257;28;20040;-69
2021/05/08 10:19:54;;;;;;;4.30;1.73;;;11.90;61.40;;;;;;5067810;28;20040;-68
2021/05/08 10:22:24;;;;;;;7.93;2.40;;;11.90;62.80;;;;;;5067187;28;20032;-68
2021/05/08 10:24:51;;;;;;;6.95;2.05;;;12.00;62.20;;;;;;5068762;28;20028;-67
2021/05/08 10:27:17;;;;;;;6.38;2.53;;;12.00;61.10;;;;;;5068983;28;20116;-68
2021/05/08 10:29:49;;;;;;;6.38;2.38;;;12.10;59.90;;;;;;5068295;28;20048;-71
2021/05/08 10:32:19;;;;;;;5.97;2.67;;;12.20;59.50;;;;;;5069661;28;20033;-71
2021/05/08 10:34:54;;;;;;;4.60;2.40;;;12.30;58.90;;;;;;5068128;28;20028;-68
2021/05/08 10:37:20;;;;;;;7.95;2.60;;;12.40;58.00;;;;;;5067872;28;20059;-68
2021/05/08 10:40:06;;;;;;;7.07;2.90;;;12.40;58.40;;;;;;5068795;28;20359;-68
2021/05/08 10:42:34;;;;;;;6.60;2.63;;;12.40;58.90;;;;;;5067548;28;20021;-67
2021/05/08 10:45:02;;;;;;;5.35;2.33;;;12.40;58.60;;;;;;5068526;28;20055;-69
2021/05/08 10:47:58;;;;;;;5.15;2.35;;;12.50;59.20;;;;;;5067886;28;20021;-71
2021/05/08 10:50:27;;;;;;;7.50;2.90;;;12.50;58.90;;;;;;5070876;28;20033;-69
2021/05/08 10:53:02;;;;;;;5.50;2.22;;;12.60;56.90;;;;;;5072964;28;20037;-68
2021/05/08 10:55:30;;;;;;;6.00;2.67;;;12.60;58.80;;;;;;5069099;28;20047;-69
2021/05/08 10:58:17;;;;;;;5.20;2.42;;;12.60;59.10;;;;;;5069887;28;20036;-67
2021/05/08 11:00:53;;;;;;;4.45;2.63;;;12.70;58.90;;;;;;5067917;28;20086;-68
2021/05/08 11:03:26;;;;;;;7.82;4.30;;;12.70;58.60;;;;;;5067764;28;20096;-69
2021/05/08 11:06:06;;;;;;;7.45;2.78;;;12.80;57.70;;;;;;5066896;28;20028;-69
2021/05/08 11:08:35;;;;;;;4.97;2.85;;;13.00;53.30;;;;;;5068770;28;20023;-69
2021/05/08 11:11:02;;;;;;;5.10;2.20;;;13.40;53.50;;;;;;5068993;28;20041;-70
2021/05/08 11:13:43;;;;;;;5.78;2.40;;;13.70;54.30;;;;;;5068201;28;20043;-70
2021/05/08 11:16:10;;;;;;;5.80;2.55;;;14.00;54.30;;;;;;5069443;28;20510;-71
2021/05/08 11:18:40;;;;;;;4.07;2.80;;;14.30;52.40;;;;;;5068117;28;20036;-69
2021/05/08 11:21:13;;;;;;;3.88;2.13;;;14.80;53.30;;;;;;5066975;28;20078;-69
2021/05/08 11:23:54;;;;;;;7.45;2.50;;;15.60;52.30;;;;;;5067640;28;20078;-66
2021/05/08 11:28:52;;;;;;;7.65;3.03;;;17.20;43.90;;;;;;5068761;28;20086;-67
2021/05/08 11:31:22;;;;;;;5.80;3.15;;;17.70;43.60;;;;;;5067238;28;20116;-68
2021/05/08 11:33:48;;;;;;;6.15;2.95;;;18.10;43.40;;;;;;5065322;28;20024;-67
2021/05/08 11:36:14;;;;;;;4.82;2.28;;;18.10;40.30;;;;;;5067729;28;20091;-66
2021/05/08 11:38:39;;;;;;;7.07;4.45;;;18.10;37.80;;;;;;5064263;28;20460;-65
2021/05/08 11:41:19;;;;;;;5.03;2.42;;;18.10;41.90;;;;;;5067539;28;20071;-67
2021/05/08 11:43:55;;;;;;;5.70;3.10;;;18.10;42.40;;;;;;5069766;28;20490;-67
2021/05/08 11:46:25;;;;;;;7.13;3.03;;;18.00;37.40;;;;;;5071245;28;20033;-66
2021/05/08 11:48:51;;;;;;;4.40;2.33;;;17.90;37.80;;;;;;5070113;28;20081;-68
2021/05/08 11:51:17;;;;;;;8.38;2.75;;;17.80;39.00;;;;;;5071728;28;20029;-68
2021/05/08 11:53:43;;;;;;;4.88;2.58;;;17.50;40.40;;;;;;5069803;28;20029;-67
2021/05/08 11:56:09;;;;;;;5.38;2.67;;;17.10;40.20;;;;;;5068165;28;20549;-69
2021/05/08 11:58:34;;;;;;;4.00;2.10;;;16.60;42.10;;;;;;5069410;28;20559;-68
2021/05/08 12:01:02;;;;;;;4.75;2.90;;;16.30;42.40;;;;;;5069651;28;20164;-68
2021/05/08 12:03:29;;;;;;;4.85;2.28;;;16.30;40.80;;;;;;5071300;28;20020;-67
2021/05/08 12:05:55;;;;;;;15.27;3.55;;;16.20;42.30;;;;;;5071071;28;20028;-68
2021/05/08 12:08:23;;;;;;;4.90;2.65;;;16.30;40.60;;;;;;5070072;28;20040;-67
2021/05/08 12:10:50;;;;;;;6.88;3.28;;;16.20;44.10;;;;;;5069720;28;20034;-69
2021/05/08 12:13:16;;;;;;;7.60;4.18;;;16.20;43.20;;;;;;5070074;28;20067;-70
2021/05/08 12:15:51;;;;;;;4.35;2.58;;;16.30;43.50;;;;;;5069219;28;20066;-70
2021/05/08 12:18:19;;;;;;;5.43;2.17;;;16.30;40.10;;;;;;5071331;28;20470;-70
2021/05/08 12:20:49;;;;;;;8.35;3.85;;;16.10;41.20;;;;;;5068778;28;20051;-71
2021/05/08 12:23:20;;;;;;;6.38;2.63;;;16.10;39.30;;;;;;5069961;28;20036;-70
2021/05/08 12:26:05;;;;;;;5.47;2.17;;;16.20;42.60;;;;;;5072195;28;20024;-70
2021/05/08 12:28:31;;;;;;;6.05;2.50;;;16.50;42.80;;;;;;5067029;28;20540;-71
2021/05/08 12:30:57;;;;;;;5.65;2.70;;;16.80;42.90;;;;;;5070037;28;20146;-70
2021/05/08 12:33:24;;;;;;;4.82;2.40;;;17.00;39.70;;;;;;5071230;28;20060;-70
2021/05/08 12:35:52;;;;;;;5.32;1.92;;;17.00;37.30;;;;;;5070195;28;20041;-70
2021/05/08 12:38:17;;;;;;;4.72;2.38;;;16.80;38.70;;;;;;5069439;28;20033;-70
2021/05/08 12:40:44;;;;;;;6.57;2.60;;;16.90;38.90;;;;;;5067983;28;20181;-69
2021/05/08 12:43:10;;;;;;;6.13;2.67;;;17.10;38.60;;;;;;5065903;28;20107;-69
2021/05/08 12:45:58;;;;;;;4.40;1.92;;;17.30;37.10;;;;;;5072349;28;20166;-70
2021/05/08 12:48:32;;;;;;;4.50;2.00;;;17.20;37.30;;;;;;5068156;28;20090;-72
2021/05/08 12:50:58;;;;;;;4.35;2.20;;;16.80;37.90;;;;;;5070267;28;20035;-72
2021/05/08 12:53:24;;;;;;;7.03;2.83;;;16.50;36.90;;;;;;5068058;28;20104;-72
2021/05/08 12:56:04;;;;;;;6.85;2.17;;;16.30;38.50;;;;;;5069171;28;20040;-72
2021/05/08 12:58:39;;;;;;;4.32;2.33;;;16.20;40.40;;;;;;5066674;28;20040;-72